sensor_id;sensor_type;location;lat;lon;timestamp;pressure;altitude;pressure_sealevel;temperature;humidity
72612;BME280;60655;52.182;4.474;2022-10-26T00:01:22;101438.84;;;13.51;83.06
72612;BME280;60655;52.182;4.474;2022-10-26T00:03:24;101418.59;;;13.43;83.40
72612;BME280;60655;52.182;4.474;2022-10-26T00:05:25;101439.88;;;13.50;83.87
72612;BME280;60655;52.182;4.474;2022-10-26T00:07:28;101433.66;;;13.56;83.37
72612;BME280;60655;52.182;4.474;2022-10-26T00:09:29;101436.19;;;13.51;82.94
72612;BME280;60655;52.182;4.474;2022-10-26T00:11:30;101435.03;;;13.40;83.69
72612;BME280;60655;52.182;4.474;2022-10-26T00:13:31;101428.53;;;13.55;83.34
72612;BME280;60655;52.182;4.474;2022-10-26T00:15:32;101423.50;;;13.46;82.96
72612;BME280;60655;52.182;4.474;2022-10-26T00:17:33;101429.81;;;13.70;82.82
72612;BME280;60655;52.182;4.474;2022-10-26T00:19:34;101422.63;;;13.71;82.79
72612;BME280;60655;52.182;4.474;2022-10-26T00:21:35;101428.00;;;13.46;82.82
72612;BME280;60655;52.182;4.474;2022-10-26T00:23:36;101418.00;;;13.60;82.96
72612;BME280;60655;52.182;4.474;2022-10-26T00:25:37;101415.19;;;13.55;83.14
72612;BME280;60655;52.182;4.474;2022-10-26T00:27:38;101414.28;;;13.61;83.13
72612;BME280;60655;52.182;4.474;2022-10-26T00:29:39;101415.81;;;13.57;83.07
72612;BME280;60655;52.182;4.474;2022-10-26T00:31:40;101406.72;;;13.39;82.58
72612;BME280;60655;52.182;4.474;2022-10-26T00:33:41;101408.72;;;13.44;82.91
72612;BME280;60655;52.182;4.474;2022-10-26T00:35:42;101400.84;;;13.31;83.25
72612;BME280;60655;52.182;4.474;2022-10-26T00:37:43;101417.06;;;13.29;83.80
72612;BME280;60655;52.182;4.474;2022-10-26T00:39:44;101398.25;;;13.24;83.90
72612;BME280;60655;52.182;4.474;2022-10-26T00:41:45;101399.44;;;13.28;83.77
72612;BME280;60655;52.182;4.474;2022-10-26T00:43:46;101389.72;;;13.15;83.88
72612;BME280;60655;52.182;4.474;2022-10-26T00:45:49;101390.53;;;13.16;83.76
72612;BME280;60655;52.182;4.474;2022-10-26T00:48:05;101387.63;;;13.17;83.82
72612;BME280;60655;52.182;4.474;2022-10-26T00:50:14;101395.88;;;13.16;83.93
72612;BME280;60655;52.182;4.474;2022-10-26T00:52:18;101400.56;;;13.14;84.06
72612;BME280;60655;52.182;4.474;2022-10-26T00:54:20;101395.66;;;13.11;84.14
72612;BME280;60655;52.182;4.474;2022-10-26T00:56:22;101391.34;;;13.16;84.34
72612;BME280;60655;52.182;4.474;2022-10-26T00:58:23;101395.03;;;13.15;83.29
72612;BME280;60655;52.182;4.474;2022-10-26T01:00:25;101401.66;;;13.06;84.09
72612;BME280;60655;52.182;4.474;2022-10-26T01:02:26;101396.75;;;13.03;83.75
72612;BME280;60655;52.182;4.474;2022-10-26T01:04:27;101391.19;;;13.05;84.16
72612;BME280;60655;52.182;4.474;2022-10-26T01:06:30;101397.19;;;13.00;83.92
72612;BME280;60655;52.182;4.474;2022-10-26T01:08:33;101401.25;;;13.03;84.11
72612;BME280;60655;52.182;4.474;2022-10-26T01:10:35;101393.22;;;13.09;84.19
72612;BME280;60655;52.182;4.474;2022-10-26T01:12:37;101392.44;;;13.02;85.00
72612;BME280;60655;52.182;4.474;2022-10-26T01:14:38;101394.84;;;13.10;84.84
72612;BME280;60655;52.182;4.474;2022-10-26T01:31:27;101369.69;;;13.00;84.90
72612;BME280;60655;52.182;4.474;2022-10-26T01:33:34;101365.25;;;12.94;85.16
72612;BME280;60655;52.182;4.474;2022-10-26T01:38:27;101362.75;;;12.99;84.32
72612;BME280;60655;52.182;4.474;2022-10-26T01:40:38;101345.41;;;12.90;85.33
72612;BME280;60655;52.182;4.474;2022-10-26T01:42:43;101348.94;;;12.83;85.11
72612;BME280;60655;52.182;4.474;2022-10-26T01:44:52;101355.91;;;12.84;85.00
72612;BME280;60655;52.182;4.474;2022-10-26T01:46:58;101345.63;;;12.88;84.90
72612;BME280;60655;52.182;4.474;2022-10-26T01:49:04;101352.41;;;12.84;85.45
72612;BME280;60655;52.182;4.474;2022-10-26T01:51:08;101341.47;;;12.92;84.86
72612;BME280;60655;52.182;4.474;2022-10-26T01:53:13;101319.22;;;12.80;84.70
72612;BME280;60655;52.182;4.474;2022-10-26T01:57:42;101325.91;;;12.89;85.59
72612;BME280;60655;52.182;4.474;2022-10-26T02:00:06;101338.06;;;13.03;85.32
72612;BME280;60655;52.182;4.474;2022-10-26T02:06:59;101343.53;;;12.90;84.91
72612;BME280;60655;52.182;4.474;2022-10-26T02:11:39;101329.56;;;12.95;84.71
72612;BME280;60655;52.182;4.474;2022-10-26T02:13:49;101322.16;;;12.97;85.22
72612;BME280;60655;52.182;4.474;2022-10-26T02:15:53;101305.22;;;12.84;85.36
72612;BME280;60655;52.182;4.474;2022-10-26T02:20:29;101295.22;;;12.80;85.03
72612;BME280;60655;52.182;4.474;2022-10-26T02:22:34;101307.53;;;12.81;85.81
72612;BME280;60655;52.182;4.474;2022-10-26T02:24:38;101306.28;;;12.83;85.37
72612;BME280;60655;52.182;4.474;2022-10-26T02:26:40;101319.72;;;12.95;85.04
72612;BME280;60655;52.182;4.474;2022-10-26T02:28:48;101316.88;;;12.90;85.30
72612;BME280;60655;52.182;4.474;2022-10-26T02:30:53;101327.03;;;13.00;85.73
72612;BME280;60655;52.182;4.474;2022-10-26T02:32:56;101326.50;;;12.91;85.15
72612;BME280;60655;52.182;4.474;2022-10-26T02:35:00;101323.63;;;12.93;84.99
72612;BME280;60655;52.182;4.474;2022-10-26T02:37:02;101326.75;;;13.08;84.98
72612;BME280;60655;52.182;4.474;2022-10-26T02:39:05;101326.06;;;13.19;84.13
72612;BME280;60655;52.182;4.474;2022-10-26T02:41:07;101319.78;;;13.07;85.34
72612;BME280;60655;52.182;4.474;2022-10-26T02:43:13;101321.25;;;13.03;85.27
72612;BME280;60655;52.182;4.474;2022-10-26T02:45:18;101325.03;;;13.20;84.70
72612;BME280;60655;52.182;4.474;2022-10-26T02:47:20;101313.56;;;13.13;83.99
72612;BME280;60655;52.182;4.474;2022-10-26T02:49:22;101322.66;;;13.05;84.32
72612;BME280;60655;52.182;4.474;2022-10-26T02:51:40;101310.91;;;13.13;84.76
72612;BME280;60655;52.182;4.474;2022-10-26T02:54:05;101315.78;;;13.23;84.77
72612;BME280;60655;52.182;4.474;2022-10-26T02:56:13;101316.03;;;13.14;84.83
72612;BME280;60655;52.182;4.474;2022-10-26T02:58:22;101305.53;;;13.20;84.43
72612;BME280;60655;52.182;4.474;2022-10-26T03:00:26;101302.91;;;13.13;84.22
72612;BME280;60655;52.182;4.474;2022-10-26T03:02:27;101309.28;;;13.12;85.11
72612;BME280;60655;52.182;4.474;2022-10-26T03:04:31;101302.75;;;13.08;85.49
72612;BME280;60655;52.182;4.474;2022-10-26T03:06:33;101310.09;;;13.12;84.79
72612;BME280;60655;52.182;4.474;2022-10-26T03:08:34;101303.84;;;13.25;84.88
72612;BME280;60655;52.182;4.474;2022-10-26T03:10:40;101299.91;;;13.28;84.23
72612;BME280;60655;52.182;4.474;2022-10-26T03:12:41;101301.78;;;13.27;84.74
72612;BME280;60655;52.182;4.474;2022-10-26T03:14:42;101293.97;;;13.26;84.65
72612;BME280;60655;52.182;4.474;2022-10-26T03:16:43;101292.94;;;13.27;84.86
72612;BME280;60655;52.182;4.474;2022-10-26T03:18:44;101293.88;;;13.32;84.34
72612;BME280;60655;52.182;4.474;2022-10-26T03:20:45;101287.28;;;13.35;84.55
72612;BME280;60655;52.182;4.474;2022-10-26T03:22:47;101285.88;;;13.32;84.72
72612;BME280;60655;52.182;4.474;2022-10-26T03:24:48;101282.78;;;13.35;84.70
72612;BME280;60655;52.182;4.474;2022-10-26T03:26:49;101275.59;;;13.17;83.88
72612;BME280;60655;52.182;4.474;2022-10-26T03:28:51;101279.28;;;13.35;84.57
72612;BME280;60655;52.182;4.474;2022-10-26T03:30:52;101279.81;;;13.43;84.13
72612;BME280;60655;52.182;4.474;2022-10-26T03:32:53;101270.31;;;13.47;84.38
72612;BME280;60655;52.182;4.474;2022-10-26T03:34:54;101269.88;;;13.32;84.37
72612;BME280;60655;52.182;4.474;2022-10-26T03:36:55;101269.50;;;13.29;84.15
72612;BME280;60655;52.182;4.474;2022-10-26T03:38:58;101284.69;;;13.28;84.48
72612;BME280;60655;52.182;4.474;2022-10-26T03:40:59;101281.53;;;13.20;84.82
72612;BME280;60655;52.182;4.474;2022-10-26T03:43:01;101284.69;;;13.28;84.89
72612;BME280;60655;52.182;4.474;2022-10-26T03:45:03;101277.81;;;13.39;84.84
72612;BME280;60655;52.182;4.474;2022-10-26T03:47:04;101282.50;;;13.25;84.74
72612;BME280;60655;52.182;4.474;2022-10-26T03:49:05;101278.56;;;13.28;84.81
72612;BME280;60655;52.182;4.474;2022-10-26T03:51:05;101284.25;;;13.31;84.71
72612;BME280;60655;52.182;4.474;2022-10-26T03:53:07;101288.44;;;13.27;84.28
72612;BME280;60655;52.182;4.474;2022-10-26T03:55:08;101274.13;;;13.22;84.85
72612;BME280;60655;52.182;4.474;2022-10-26T03:57:10;101282.84;;;13.29;84.90
72612;BME280;60655;52.182;4.474;2022-10-26T03:59:13;101282.69;;;13.42;84.72
72612;BME280;60655;52.182;4.474;2022-10-26T04:01:14;101289.97;;;13.35;85.04
72612;BME280;60655;52.182;4.474;2022-10-26T04:03:15;101272.75;;;13.31;84.64
72612;BME280;60655;52.182;4.474;2022-10-26T04:05:16;101278.78;;;13.26;84.83
72612;BME280;60655;52.182;4.474;2022-10-26T04:07:18;101279.06;;;13.36;84.73
72612;BME280;60655;52.182;4.474;2022-10-26T04:09:19;101276.47;;;13.30;84.13
72612;BME280;60655;52.182;4.474;2022-10-26T04:11:20;101266.28;;;13.27;84.96
72612;BME280;60655;52.182;4.474;2022-10-26T04:13:21;101279.50;;;13.33;84.72
72612;BME280;60655;52.182;4.474;2022-10-26T04:15:22;101271.34;;;13.28;84.68
72612;BME280;60655;52.182;4.474;2022-10-26T04:17:23;101279.06;;;13.18;85.16
72612;BME280;60655;52.182;4.474;2022-10-26T04:19:25;101279.69;;;13.20;85.30
72612;BME280;60655;52.182;4.474;2022-10-26T04:21:25;101277.28;;;13.30;85.09
72612;BME280;60655;52.182;4.474;2022-10-26T04:23:26;101278.03;;;13.19;85.30
72612;BME280;60655;52.182;4.474;2022-10-26T04:25:28;101275.97;;;13.21;85.25
72612;BME280;60655;52.182;4.474;2022-10-26T04:27:29;101277.81;;;13.21;85.42
72612;BME280;60655;52.182;4.474;2022-10-26T04:29:30;101277.66;;;13.15;85.66
72612;BME280;60655;52.182;4.474;2022-10-26T04:31:32;101277.75;;;13.27;85.02
72612;BME280;60655;52.182;4.474;2022-10-26T04:33:32;101271.22;;;13.23;85.19
72612;BME280;60655;52.182;4.474;2022-10-26T04:35:34;101279.00;;;13.43;84.60
72612;BME280;60655;52.182;4.474;2022-10-26T04:37:35;101268.94;;;13.27;85.00
72612;BME280;60655;52.182;4.474;2022-10-26T04:39:36;101277.66;;;13.15;84.44
72612;BME280;60655;52.182;4.474;2022-10-26T04:41:37;101275.09;;;13.27;84.84
72612;BME280;60655;52.182;4.474;2022-10-26T04:43:39;101267.59;;;13.17;85.66
72612;BME280;60655;52.182;4.474;2022-10-26T04:45:40;101274.94;;;13.22;85.21
72612;BME280;60655;52.182;4.474;2022-10-26T04:47:41;101270.91;;;13.31;85.49
72612;BME280;60655;52.182;4.474;2022-10-26T04:49:42;101267.66;;;13.29;85.38
72612;BME280;60655;52.182;4.474;2022-10-26T04:51:43;101267.19;;;13.32;84.87
72612;BME280;60655;52.182;4.474;2022-10-26T04:53:44;101265.13;;;13.34;84.55
72612;BME280;60655;52.182;4.474;2022-10-26T04:55:45;101257.94;;;13.35;85.52
72612;BME280;60655;52.182;4.474;2022-10-26T04:57:46;101260.22;;;13.31;85.11
72612;BME280;60655;52.182;4.474;2022-10-26T04:59:47;101254.91;;;13.31;85.11
72612;BME280;60655;52.182;4.474;2022-10-26T05:01:48;101262.81;;;13.38;85.09
72612;BME280;60655;52.182;4.474;2022-10-26T05:03:51;101254.47;;;13.34;84.54
72612;BME280;60655;52.182;4.474;2022-10-26T05:05:52;101259.91;;;13.28;85.85
72612;BME280;60655;52.182;4.474;2022-10-26T05:07:54;101260.13;;;13.26;85.46
72612;BME280;60655;52.182;4.474;2022-10-26T05:09:55;101266.72;;;13.24;85.13
72612;BME280;60655;52.182;4.474;2022-10-26T05:11:56;101267.75;;;13.23;85.63
72612;BME280;60655;52.182;4.474;2022-10-26T05:13:57;101265.66;;;13.25;84.64
72612;BME280;60655;52.182;4.474;2022-10-26T05:15:58;101269.75;;;13.27;85.22
72612;BME280;60655;52.182;4.474;2022-10-26T05:18:04;101271.66;;;13.20;85.45
72612;BME280;60655;52.182;4.474;2022-10-26T05:20:05;101257.28;;;13.21;84.85
72612;BME280;60655;52.182;4.474;2022-10-26T05:22:10;101268.00;;;13.14;85.15
72612;BME280;60655;52.182;4.474;2022-10-26T05:24:11;101254.56;;;13.28;84.83
72612;BME280;60655;52.182;4.474;2022-10-26T05:26:12;101248.75;;;13.31;85.35
72612;BME280;60655;52.182;4.474;2022-10-26T05:28:15;101254.59;;;13.39;84.63
72612;BME280;60655;52.182;4.474;2022-10-26T05:30:16;101265.06;;;13.41;84.28
72612;BME280;60655;52.182;4.474;2022-10-26T05:32:17;101259.34;;;13.37;84.13
72612;BME280;60655;52.182;4.474;2022-10-26T05:34:18;101260.59;;;13.35;84.28
72612;BME280;60655;52.182;4.474;2022-10-26T05:36:19;101251.94;;;13.39;83.86
72612;BME280;60655;52.182;4.474;2022-10-26T05:38:20;101245.56;;;13.40;83.63
72612;BME280;60655;52.182;4.474;2022-10-26T05:40:22;101264.53;;;13.32;84.86
72612;BME280;60655;52.182;4.474;2022-10-26T05:42:23;101231.69;;;13.32;83.36
72612;BME280;60655;52.182;4.474;2022-10-26T05:44:25;101242.16;;;13.15;84.48
72612;BME280;60655;52.182;4.474;2022-10-26T05:46:29;101250.75;;;13.35;84.24
72612;BME280;60655;52.182;4.474;2022-10-26T05:48:30;101259.13;;;13.39;84.34
72612;BME280;60655;52.182;4.474;2022-10-26T05:50:31;101253.50;;;13.29;84.17
72612;BME280;60655;52.182;4.474;2022-10-26T05:52:42;101249.78;;;13.30;84.64
72612;BME280;60655;52.182;4.474;2022-10-26T05:54:44;101253.22;;;13.18;84.57
72612;BME280;60655;52.182;4.474;2022-10-26T05:56:45;101256.75;;;13.12;85.14
72612;BME280;60655;52.182;4.474;2022-10-26T05:58:47;101261.16;;;13.25;84.89
72612;BME280;60655;52.182;4.474;2022-10-26T06:05:21;101250.16;;;13.15;85.24
72612;BME280;60655;52.182;4.474;2022-10-26T06:07:23;101239.91;;;13.12;84.83
72612;BME280;60655;52.182;4.474;2022-10-26T06:09:24;101250.66;;;13.05;85.05
72612;BME280;60655;52.182;4.474;2022-10-26T06:11:25;101247.25;;;12.98;85.84
72612;BME280;60655;52.182;4.474;2022-10-26T06:13:26;101250.78;;;13.17;85.16
72612;BME280;60655;52.182;4.474;2022-10-26T06:15:29;101263.56;;;13.08;85.56
72612;BME280;60655;52.182;4.474;2022-10-26T06:18:07;101256.13;;;13.10;85.51
72612;BME280;60655;52.182;4.474;2022-10-26T06:20:20;101253.03;;;13.13;85.14
72612;BME280;60655;52.182;4.474;2022-10-26T06:27:22;101249.84;;;13.05;85.53
72612;BME280;60655;52.182;4.474;2022-10-26T06:29:49;101257.75;;;13.18;85.76
72612;BME280;60655;52.182;4.474;2022-10-26T06:31:54;101244.88;;;13.08;85.60
72612;BME280;60655;52.182;4.474;2022-10-26T06:33:57;101243.84;;;13.09;85.46
72612;BME280;60655;52.182;4.474;2022-10-26T06:38:18;101256.47;;;13.21;84.90
72612;BME280;60655;52.182;4.474;2022-10-26T06:40:21;101260.34;;;13.25;85.12
72612;BME280;60655;52.182;4.474;2022-10-26T06:42:22;101270.06;;;13.12;85.88
72612;BME280;60655;52.182;4.474;2022-10-26T06:44:24;101267.00;;;13.15;85.34
72612;BME280;60655;52.182;4.474;2022-10-26T06:46:43;101280.16;;;13.29;85.27
72612;BME280;60655;52.182;4.474;2022-10-26T06:49:26;101287.34;;;13.28;85.00
72612;BME280;60655;52.182;4.474;2022-10-26T06:51:19;101292.44;;;13.11;86.01
72612;BME280;60655;52.182;4.474;2022-10-26T06:53:29;101284.88;;;13.08;85.65
72612;BME280;60655;52.182;4.474;2022-10-26T06:55:39;101290.94;;;13.22;85.55
72612;BME280;60655;52.182;4.474;2022-10-26T06:57:42;101281.56;;;13.31;85.23
72612;BME280;60655;52.182;4.474;2022-10-26T06:59:49;101279.66;;;13.38;84.31
72612;BME280;60655;52.182;4.474;2022-10-26T07:01:51;101269.81;;;13.21;84.76
72612;BME280;60655;52.182;4.474;2022-10-26T07:03:52;101279.59;;;13.27;85.34
72612;BME280;60655;52.182;4.474;2022-10-26T07:05:53;101281.13;;;13.34;84.89
72612;BME280;60655;52.182;4.474;2022-10-26T07:07:54;101286.91;;;13.31;84.69
72612;BME280;60655;52.182;4.474;2022-10-26T07:09:55;101286.69;;;13.33;85.38
72612;BME280;60655;52.182;4.474;2022-10-26T07:11:56;101271.88;;;13.18;85.46
72612;BME280;60655;52.182;4.474;2022-10-26T07:13:57;101289.75;;;13.36;84.54
72612;BME280;60655;52.182;4.474;2022-10-26T07:15:57;101306.13;;;13.40;84.84
72612;BME280;60655;52.182;4.474;2022-10-26T07:17:58;101285.44;;;13.35;84.54
72612;BME280;60655;52.182;4.474;2022-10-26T07:19:59;101301.09;;;13.50;84.81
72612;BME280;60655;52.182;4.474;2022-10-26T07:22:00;101301.13;;;13.62;84.80
72612;BME280;60655;52.182;4.474;2022-10-26T07:24:02;101299.91;;;13.46;85.22
72612;BME280;60655;52.182;4.474;2022-10-26T07:26:03;101309.88;;;13.69;84.24
72612;BME280;60655;52.182;4.474;2022-10-26T07:28:04;101309.13;;;13.62;84.12
72612;BME280;60655;52.182;4.474;2022-10-26T07:30:06;101307.50;;;13.61;84.64
72612;BME280;60655;52.182;4.474;2022-10-26T07:32:07;101304.97;;;13.66;84.38
72612;BME280;60655;52.182;4.474;2022-10-26T07:34:08;101319.00;;;13.61;84.30
72612;BME280;60655;52.182;4.474;2022-10-26T07:36:10;101324.72;;;13.65;84.36
72612;BME280;60655;52.182;4.474;2022-10-26T07:38:12;101308.78;;;13.58;83.89
72612;BME280;60655;52.182;4.474;2022-10-26T07:40:13;101318.88;;;13.56;84.24
72612;BME280;60655;52.182;4.474;2022-10-26T07:42:15;101334.75;;;13.51;85.51
72612;BME280;60655;52.182;4.474;2022-10-26T07:44:16;101324.13;;;13.63;85.15
72612;BME280;60655;52.182;4.474;2022-10-26T07:46:18;101338.66;;;13.85;83.82
72612;BME280;60655;52.182;4.474;2022-10-26T07:48:19;101330.63;;;13.85;83.83
72612;BME280;60655;52.182;4.474;2022-10-26T07:50:20;101326.78;;;13.81;84.24
72612;BME280;60655;52.182;4.474;2022-10-26T07:52:21;101349.56;;;13.83;84.16
72612;BME280;60655;52.182;4.474;2022-10-26T07:54:22;101352.13;;;13.90;84.44
72612;BME280;60655;52.182;4.474;2022-10-26T07:56:23;101361.47;;;13.99;84.08
72612;BME280;60655;52.182;4.474;2022-10-26T07:58:24;101365.84;;;13.94;84.36
72612;BME280;60655;52.182;4.474;2022-10-26T08:00:26;101366.00;;;13.99;84.39
72612;BME280;60655;52.182;4.474;2022-10-26T08:02:29;101354.03;;;14.01;84.01
72612;BME280;60655;52.182;4.474;2022-10-26T08:04:30;101356.34;;;13.98;83.77
72612;BME280;60655;52.182;4.474;2022-10-26T08:06:31;101366.13;;;14.04;83.99
72612;BME280;60655;52.182;4.474;2022-10-26T08:08:33;101359.31;;;14.08;84.30
72612;BME280;60655;52.182;4.474;2022-10-26T08:10:34;101357.00;;;14.11;84.12
72612;BME280;60655;52.182;4.474;2022-10-26T08:12:35;101351.53;;;14.18;83.85
72612;BME280;60655;52.182;4.474;2022-10-26T08:14:35;101356.19;;;14.23;83.55
72612;BME280;60655;52.182;4.474;2022-10-26T08:16:37;101348.69;;;14.31;83.34
72612;BME280;60655;52.182;4.474;2022-10-26T08:18:40;101343.28;;;14.19;83.75
72612;BME280;60655;52.182;4.474;2022-10-26T08:20:41;101347.56;;;14.39;83.38
72612;BME280;60655;52.182;4.474;2022-10-26T08:22:41;101343.25;;;14.38;83.27
72612;BME280;60655;52.182;4.474;2022-10-26T08:24:42;101337.53;;;14.34;83.37
72612;BME280;60655;52.182;4.474;2022-10-26T08:26:46;101346.97;;;14.37;83.62
72612;BME280;60655;52.182;4.474;2022-10-26T08:28:48;101331.38;;;14.34;83.91
72612;BME280;60655;52.182;4.474;2022-10-26T08:30:49;101338.50;;;14.40;84.20
72612;BME280;60655;52.182;4.474;2022-10-26T08:33:00;101334.31;;;14.44;83.91
72612;BME280;60655;52.182;4.474;2022-10-26T08:35:01;101350.84;;;14.52;83.79
72612;BME280;60655;52.182;4.474;2022-10-26T08:37:02;101348.41;;;14.51;84.05
72612;BME280;60655;52.182;4.474;2022-10-26T08:39:03;101335.81;;;14.40;83.89
72612;BME280;60655;52.182;4.474;2022-10-26T08:41:07;101365.75;;;14.60;83.65
72612;BME280;60655;52.182;4.474;2022-10-26T08:43:23;101366.59;;;14.84;82.98
72612;BME280;60655;52.182;4.474;2022-10-26T08:45:30;101385.47;;;14.89;82.98
72612;BME280;60655;52.182;4.474;2022-10-26T08:47:39;101379.75;;;14.85;83.03
72612;BME280;60655;52.182;4.474;2022-10-26T08:50:10;101379.19;;;14.95;83.39
72612;BME280;60655;52.182;4.474;2022-10-26T08:52:17;101370.56;;;15.05;83.32
72612;BME280;60655;52.182;4.474;2022-10-26T08:54:39;101360.69;;;15.05;82.59
72612;BME280;60655;52.182;4.474;2022-10-26T08:56:46;101371.84;;;15.14;82.88
72612;BME280;60655;52.182;4.474;2022-10-26T08:59:04;101367.09;;;15.16;82.57
72612;BME280;60655;52.182;4.474;2022-10-26T09:01:08;101369.31;;;15.19;82.70
72612;BME280;60655;52.182;4.474;2022-10-26T09:03:13;101370.34;;;15.18;82.88
72612;BME280;60655;52.182;4.474;2022-10-26T09:05:17;101377.31;;;15.31;82.42
72612;BME280;60655;52.182;4.474;2022-10-26T09:09:37;101393.94;;;15.44;82.73
72612;BME280;60655;52.182;4.474;2022-10-26T09:14:14;101398.97;;;15.52;82.55
72612;BME280;60655;52.182;4.474;2022-10-26T09:17:10;101412.56;;;15.51;82.53
72612;BME280;60655;52.182;4.474;2022-10-26T09:21:30;101405.59;;;15.62;83.19
72612;BME280;60655;52.182;4.474;2022-10-26T09:25:39;101403.72;;;15.74;82.62
72612;BME280;60655;52.182;4.474;2022-10-26T09:27:46;101405.81;;;15.72;83.00
72612;BME280;60655;52.182;4.474;2022-10-26T09:29:50;101402.38;;;15.88;82.77
72612;BME280;60655;52.182;4.474;2022-10-26T09:31:53;101412.75;;;15.96;81.96
72612;BME280;60655;52.182;4.474;2022-10-26T09:33:55;101393.06;;;15.91;82.82
72612;BME280;60655;52.182;4.474;2022-10-26T09:36:04;101403.19;;;16.00;83.23
72612;BME280;60655;52.182;4.474;2022-10-26T09:40:36;101404.09;;;16.06;83.07
72612;BME280;60655;52.182;4.474;2022-10-26T09:43:02;101405.63;;;16.02;83.37
72612;BME280;60655;52.182;4.474;2022-10-26T09:45:13;101415.63;;;16.06;82.78
72612;BME280;60655;52.182;4.474;2022-10-26T09:49:34;101430.09;;;16.34;82.35
72612;BME280;60655;52.182;4.474;2022-10-26T09:51:38;101426.56;;;16.16;82.85
72612;BME280;60655;52.182;4.474;2022-10-26T09:53:42;101436.31;;;16.23;82.56
72612;BME280;60655;52.182;4.474;2022-10-26T09:55:46;101421.44;;;16.15;83.02
72612;BME280;60655;52.182;4.474;2022-10-26T09:57:51;101435.16;;;16.18;83.67
72612;BME280;60655;52.182;4.474;2022-10-26T09:59:53;101430.94;;;16.23;83.49
72612;BME280;60655;52.182;4.474;2022-10-26T10:01:55;101439.31;;;16.38;82.62
72612;BME280;60655;52.182;4.474;2022-10-26T10:06:21;101452.38;;;16.34;83.49
72612;BME280;60655;52.182;4.474;2022-10-26T10:08:26;101455.31;;;16.49;82.79
72612;BME280;60655;52.182;4.474;2022-10-26T10:10:27;101451.09;;;16.37;84.08
72612;BME280;60655;52.182;4.474;2022-10-26T10:12:28;101461.50;;;16.50;83.07
72612;BME280;60655;52.182;4.474;2022-10-26T10:14:53;101463.13;;;16.51;83.52
72612;BME280;60655;52.182;4.474;2022-10-26T10:16:55;101478.66;;;16.49;83.91
72612;BME280;60655;52.182;4.474;2022-10-26T10:18:58;101479.28;;;16.39;84.35
72612;BME280;60655;52.182;4.474;2022-10-26T10:21:00;101474.53;;;16.58;83.42
72612;BME280;60655;52.182;4.474;2022-10-26T10:23:02;101496.13;;;16.51;83.83
72612;BME280;60655;52.182;4.474;2022-10-26T10:25:22;101486.31;;;16.57;83.12
72612;BME280;60655;52.182;4.474;2022-10-26T10:27:25;101485.50;;;16.57;83.26
72612;BME280;60655;52.182;4.474;2022-10-26T10:29:28;101488.81;;;16.47;83.43
72612;BME280;60655;52.182;4.474;2022-10-26T10:31:31;101496.47;;;16.55;82.88
72612;BME280;60655;52.182;4.474;2022-10-26T10:33:33;101499.97;;;16.55;83.50
72612;BME280;60655;52.182;4.474;2022-10-26T10:35:35;101488.56;;;16.48;83.48
72612;BME280;60655;52.182;4.474;2022-10-26T10:37:39;101504.88;;;16.47;84.10
72612;BME280;60655;52.182;4.474;2022-10-26T10:39:44;101507.91;;;16.50;84.69
72612;BME280;60655;52.182;4.474;2022-10-26T10:41:45;101508.13;;;16.61;83.68
72612;BME280;60655;52.182;4.474;2022-10-26T10:43:52;101505.44;;;16.61;83.40
72612;BME280;60655;52.182;4.474;2022-10-26T10:45:56;101495.75;;;16.60;83.10
72612;BME280;60655;52.182;4.474;2022-10-26T10:48:26;101513.25;;;16.62;82.80
72612;BME280;60655;52.182;4.474;2022-10-26T10:50:28;101509.75;;;16.73;83.06
72612;BME280;60655;52.182;4.474;2022-10-26T10:52:32;101508.13;;;16.72;83.15
72612;BME280;60655;52.182;4.474;2022-10-26T10:54:36;101512.34;;;16.85;83.28
72612;BME280;60655;52.182;4.474;2022-10-26T10:56:46;101506.13;;;17.13;80.94
72612;BME280;60655;52.182;4.474;2022-10-26T10:59:00;101509.38;;;17.15;81.34
72612;BME280;60655;52.182;4.474;2022-10-26T11:01:12;101511.06;;;17.04;81.93
72612;BME280;60655;52.182;4.474;2022-10-26T11:03:44;101511.66;;;17.06;81.87
72612;BME280;60655;52.182;4.474;2022-10-26T11:06:12;101523.00;;;17.25;81.72
72612;BME280;60655;52.182;4.474;2022-10-26T11:08:20;101519.88;;;17.33;82.08
72612;BME280;60655;52.182;4.474;2022-10-26T11:10:25;101523.38;;;17.34;81.50
72612;BME280;60655;52.182;4.474;2022-10-26T11:12:33;101528.13;;;17.27;81.17
72612;BME280;60655;52.182;4.474;2022-10-26T11:14:40;101531.75;;;17.37;81.71
72612;BME280;60655;52.182;4.474;2022-10-26T11:16:47;101528.94;;;17.27;81.44
72612;BME280;60655;52.182;4.474;2022-10-26T11:19:24;101530.09;;;17.31;81.24
72612;BME280;60655;52.182;4.474;2022-10-26T11:21:28;101529.81;;;17.49;80.84
72612;BME280;60655;52.182;4.474;2022-10-26T11:23:47;101544.91;;;17.67;79.57
72612;BME280;60655;52.182;4.474;2022-10-26T11:25:52;101540.50;;;17.61;80.59
72612;BME280;60655;52.182;4.474;2022-10-26T11:28:03;101545.47;;;17.52;80.78
72612;BME280;60655;52.182;4.474;2022-10-26T11:32:14;101546.94;;;17.60;80.00
72612;BME280;60655;52.182;4.474;2022-10-26T11:36:42;101543.19;;;17.78;80.15
72612;BME280;60655;52.182;4.474;2022-10-26T11:38:57;101533.09;;;17.68;78.82
72612;BME280;60655;52.182;4.474;2022-10-26T11:41:20;101535.53;;;17.70;79.50
72612;BME280;60655;52.182;4.474;2022-10-26T11:43:34;101553.03;;;17.89;78.82
72612;BME280;60655;52.182;4.474;2022-10-26T11:45:45;101540.94;;;17.92;78.61
72612;BME280;60655;52.182;4.474;2022-10-26T11:47:50;101555.28;;;17.97;77.57
72612;BME280;60655;52.182;4.474;2022-10-26T11:50:35;101558.03;;;18.02;78.07
72612;BME280;60655;52.182;4.474;2022-10-26T11:52:43;101553.81;;;18.06;77.96
72612;BME280;60655;52.182;4.474;2022-10-26T11:54:55;101561.22;;;17.99;76.43